sensor_id;sensor_type;location;lat;lon;timestamp;P1;durP1;ratioP1;P2;durP2;ratioP2
17235;SDS011;8734;59.272;17.780;2023-05-20T00:01:22;10.67;;;3.50;;
17235;SDS011;8734;59.272;17.780;2023-05-20T00:03:51;11.07;;;2.73;;
17235;SDS011;8734;59.272;17.780;2023-05-20T00:06:19;10.50;;;2.87;;
17235;SDS011;8734;59.272;17.780;2023-05-20T00:08:49;13.40;;;3.37;;
17235;SDS011;8734;59.272;17.780;2023-05-20T00:11:17;13.43;;;2.87;;
17235;SDS011;8734;59.272;17.780;2023-05-20T00:13:45;13.23;;;3.03;;
17235;SDS011;8734;59.272;17.780;2023-05-20T00:16:14;14.47;;;3.23;;
17235;SDS011;8734;59.272;17.780;2023-05-20T00:18:42;9.07;;;2.80;;
17235;SDS011;8734;59.272;17.780;2023-05-20T00:21:10;9.57;;;3.10;;
17235;SDS011;8734;59.272;17.780;2023-05-20T00:23:39;5.13;;;2.60;;
17235;SDS011;8734;59.272;17.780;2023-05-20T00:26:08;18.47;;;3.63;;
17235;SDS011;8734;59.272;17.780;2023-05-20T00:28:37;8.97;;;2.70;;
17235;SDS011;8734;59.272;17.780;2023-05-20T00:31:05;10.53;;;2.63;;
17235;SDS011;8734;59.272;17.780;2023-05-20T00:33:33;7.27;;;2.70;;
17235;SDS011;8734;59.272;17.780;2023-05-20T00:36:03;6.60;;;2.10;;
17235;SDS011;8734;59.272;17.780;2023-05-20T00:38:32;13.97;;;2.90;;
17235;SDS011;8734;59.272;17.780;2023-05-20T00:41:00;8.80;;;2.87;;
17235;SDS011;8734;59.272;17.780;2023-05-20T00:43:30;11.60;;;2.77;;
17235;SDS011;8734;59.272;17.780;2023-05-20T00:45:59;11.47;;;2.53;;
17235;SDS011;8734;59.272;17.780;2023-05-20T00:48:28;16.33;;;3.03;;
17235;SDS011;8734;59.272;17.780;2023-05-20T00:51:02;11.97;;;2.60;;
17235;SDS011;8734;59.272;17.780;2023-05-20T00:53:30;12.73;;;3.40;;
17235;SDS011;8734;59.272;17.780;2023-05-20T00:55:59;8.07;;;2.90;;
17235;SDS011;8734;59.272;17.780;2023-05-20T00:58:27;6.73;;;2.00;;
17235;SDS011;8734;59.272;17.780;2023-05-20T01:00:57;13.07;;;3.30;;
17235;SDS011;8734;59.272;17.780;2023-05-20T01:03:25;9.83;;;3.20;;
17235;SDS011;8734;59.272;17.780;2023-05-20T01:05:55;17.87;;;3.70;;
17235;SDS011;8734;59.272;17.780;2023-05-20T01:08:23;14.83;;;3.60;;
17235;SDS011;8734;59.272;17.780;2023-05-20T01:10:54;8.07;;;2.73;;
17235;SDS011;8734;59.272;17.780;2023-05-20T01:13:27;9.37;;;2.87;;
17235;SDS011;8734;59.272;17.780;2023-05-20T01:16:01;8.90;;;3.00;;
17235;SDS011;8734;59.272;17.780;2023-05-20T01:18:31;10.80;;;2.77;;
17235;SDS011;8734;59.272;17.780;2023-05-20T01:21:00;12.07;;;2.67;;
17235;SDS011;8734;59.272;17.780;2023-05-20T01:23:36;7.40;;;2.53;;
17235;SDS011;8734;59.272;17.780;2023-05-20T01:26:05;6.40;;;2.30;;
17235;SDS011;8734;59.272;17.780;2023-05-20T01:28:34;10.00;;;3.00;;
17235;SDS011;8734;59.272;17.780;2023-05-20T01:31:04;9.17;;;2.47;;
17235;SDS011;8734;59.272;17.780;2023-05-20T01:33:37;14.27;;;3.03;;
17235;SDS011;8734;59.272;17.780;2023-05-20T01:36:07;6.07;;;2.70;;
17235;SDS011;8734;59.272;17.780;2023-05-20T01:38:38;11.47;;;2.87;;
17235;SDS011;8734;59.272;17.780;2023-05-20T01:41:08;8.43;;;3.10;;
17235;SDS011;8734;59.272;17.780;2023-05-20T01:43:38;8.37;;;2.60;;
17235;SDS011;8734;59.272;17.780;2023-05-20T01:46:07;14.33;;;3.13;;
17235;SDS011;8734;59.272;17.780;2023-05-20T01:48:35;11.73;;;3.03;;
17235;SDS011;8734;59.272;17.780;2023-05-20T01:51:04;9.67;;;2.70;;
17235;SDS011;8734;59.272;17.780;2023-05-20T01:53:33;10.13;;;3.27;;
17235;SDS011;8734;59.272;17.780;2023-05-20T01:56:03;10.13;;;2.90;;
17235;SDS011;8734;59.272;17.780;2023-05-20T01:58:32;8.43;;;2.60;;
17235;SDS011;8734;59.272;17.780;2023-05-20T02:01:00;13.53;;;2.90;;
17235;SDS011;8734;59.272;17.780;2023-05-20T02:03:29;14.20;;;3.23;;
17235;SDS011;8734;59.272;17.780;2023-05-20T02:05:57;9.73;;;3.00;;
17235;SDS011;8734;59.272;17.780;2023-05-20T02:08:26;9.60;;;2.83;;
17235;SDS011;8734;59.272;17.780;2023-05-20T02:10:54;9.47;;;3.10;;
17235;SDS011;8734;59.272;17.780;2023-05-20T02:13:24;6.93;;;2.77;;
17235;SDS011;8734;59.272;17.780;2023-05-20T02:15:52;10.03;;;3.03;;
17235;SDS011;8734;59.272;17.780;2023-05-20T02:18:20;9.83;;;3.03;;
17235;SDS011;8734;59.272;17.780;2023-05-20T02:20:51;8.93;;;3.00;;
17235;SDS011;8734;59.272;17.780;2023-05-20T02:23:20;6.00;;;3.03;;
17235;SDS011;8734;59.272;17.780;2023-05-20T02:25:48;8.80;;;3.00;;
17235;SDS011;8734;59.272;17.780;2023-05-20T02:28:16;13.03;;;3.57;;
17235;SDS011;8734;59.272;17.780;2023-05-20T02:30:46;7.13;;;3.27;;
17235;SDS011;8734;59.272;17.780;2023-05-20T02:33:16;10.13;;;3.47;;
17235;SDS011;8734;59.272;17.780;2023-05-20T02:35:44;16.53;;;3.40;;
17235;SDS011;8734;59.272;17.780;2023-05-20T02:38:13;11.93;;;3.30;;
17235;SDS011;8734;59.272;17.780;2023-05-20T02:40:42;9.17;;;3.27;;
17235;SDS011;8734;59.272;17.780;2023-05-20T02:43:11;13.93;;;3.30;;
17235;SDS011;8734;59.272;17.780;2023-05-20T02:45:39;20.10;;;3.00;;
17235;SDS011;8734;59.272;17.780;2023-05-20T02:48:09;15.03;;;3.30;;
17235;SDS011;8734;59.272;17.780;2023-05-20T02:50:37;16.90;;;3.50;;
17235;SDS011;8734;59.272;17.780;2023-05-20T02:53:06;10.13;;;3.27;;
17235;SDS011;8734;59.272;17.780;2023-05-20T02:55:34;8.60;;;2.60;;
17235;SDS011;8734;59.272;17.780;2023-05-20T02:58:03;11.23;;;3.13;;
17235;SDS011;8734;59.272;17.780;2023-05-20T03:00:31;12.13;;;3.03;;
17235;SDS011;8734;59.272;17.780;2023-05-20T03:03:06;9.53;;;3.00;;
17235;SDS011;8734;59.272;17.780;2023-05-20T03:05:37;13.37;;;3.07;;
17235;SDS011;8734;59.272;17.780;2023-05-20T03:08:09;10.00;;;2.90;;
17235;SDS011;8734;59.272;17.780;2023-05-20T03:10:37;10.27;;;2.90;;
17235;SDS011;8734;59.272;17.780;2023-05-20T03:13:06;8.60;;;2.30;;
17235;SDS011;8734;59.272;17.780;2023-05-20T03:15:36;11.27;;;2.20;;
17235;SDS011;8734;59.272;17.780;2023-05-20T03:18:05;10.73;;;2.43;;
17235;SDS011;8734;59.272;17.780;2023-05-20T03:20:34;5.10;;;2.30;;
17235;SDS011;8734;59.272;17.780;2023-05-20T03:23:05;14.20;;;2.90;;
17235;SDS011;8734;59.272;17.780;2023-05-20T03:25:33;14.37;;;2.97;;
17235;SDS011;8734;59.272;17.780;2023-05-20T03:28:02;7.33;;;2.90;;
17235;SDS011;8734;59.272;17.780;2023-05-20T03:30:32;8.53;;;2.67;;
17235;SDS011;8734;59.272;17.780;2023-05-20T03:33:00;12.93;;;2.93;;
17235;SDS011;8734;59.272;17.780;2023-05-20T03:35:29;11.80;;;2.87;;
17235;SDS011;8734;59.272;17.780;2023-05-20T03:37:58;5.90;;;2.17;;
17235;SDS011;8734;59.272;17.780;2023-05-20T03:40:28;11.00;;;2.43;;
17235;SDS011;8734;59.272;17.780;2023-05-20T03:42:56;9.60;;;2.20;;
17235;SDS011;8734;59.272;17.780;2023-05-20T03:45:25;12.27;;;2.93;;
17235;SDS011;8734;59.272;17.780;2023-05-20T03:47:53;10.07;;;2.40;;
17235;SDS011;8734;59.272;17.780;2023-05-20T03:50:22;14.03;;;2.70;;
17235;SDS011;8734;59.272;17.780;2023-05-20T03:52:50;11.73;;;2.60;;
17235;SDS011;8734;59.272;17.780;2023-05-20T03:55:18;11.00;;;2.40;;
17235;SDS011;8734;59.272;17.780;2023-05-20T03:57:48;8.73;;;2.30;;
17235;SDS011;8734;59.272;17.780;2023-05-20T04:00:16;5.73;;;2.10;;
17235;SDS011;8734;59.272;17.780;2023-05-20T04:02:45;4.83;;;2.17;;
17235;SDS011;8734;59.272;17.780;2023-05-20T04:05:13;10.30;;;2.23;;
17235;SDS011;8734;59.272;17.780;2023-05-20T04:07:42;8.13;;;2.43;;
17235;SDS011;8734;59.272;17.780;2023-05-20T04:10:10;15.67;;;2.53;;
17235;SDS011;8734;59.272;17.780;2023-05-20T04:12:38;5.67;;;2.00;;
17235;SDS011;8734;59.272;17.780;2023-05-20T04:15:10;4.87;;;1.93;;
17235;SDS011;8734;59.272;17.780;2023-05-20T04:17:39;10.27;;;2.47;;
17235;SDS011;8734;59.272;17.780;2023-05-20T04:20:08;4.57;;;2.10;;
17235;SDS011;8734;59.272;17.780;2023-05-20T04:22:37;11.40;;;1.93;;
17235;SDS011;8734;59.272;17.780;2023-05-20T04:25:06;5.43;;;2.13;;
17235;SDS011;8734;59.272;17.780;2023-05-20T04:27:35;6.30;;;1.70;;
17235;SDS011;8734;59.272;17.780;2023-05-20T04:30:05;6.10;;;2.07;;
17235;SDS011;8734;59.272;17.780;2023-05-20T04:32:36;8.40;;;1.83;;
17235;SDS011;8734;59.272;17.780;2023-05-20T04:35:05;4.67;;;1.60;;
17235;SDS011;8734;59.272;17.780;2023-05-20T04:37:37;7.37;;;1.63;;
17235;SDS011;8734;59.272;17.780;2023-05-20T04:40:06;9.27;;;2.17;;
17235;SDS011;8734;59.272;17.780;2023-05-20T04:42:35;2.97;;;1.30;;
17235;SDS011;8734;59.272;17.780;2023-05-20T04:45:04;6.33;;;1.60;;
17235;SDS011;8734;59.272;17.780;2023-05-20T04:47:34;10.20;;;1.40;;
17235;SDS011;8734;59.272;17.780;2023-05-20T04:50:06;9.40;;;1.67;;
17235;SDS011;8734;59.272;17.780;2023-05-20T04:52:37;6.20;;;1.13;;
17235;SDS011;8734;59.272;17.780;2023-05-20T04:55:07;3.70;;;1.27;;
17235;SDS011;8734;59.272;17.780;2023-05-20T04:57:36;5.07;;;1.20;;
17235;SDS011;8734;59.272;17.780;2023-05-20T05:00:08;2.80;;;1.27;;
17235;SDS011;8734;59.272;17.780;2023-05-20T05:02:38;4.10;;;1.40;;
17235;SDS011;8734;59.272;17.780;2023-05-20T05:05:09;3.93;;;1.30;;
17235;SDS011;8734;59.272;17.780;2023-05-20T05:07:37;4.03;;;1.17;;
17235;SDS011;8734;59.272;17.780;2023-05-20T05:10:05;5.50;;;1.20;;
17235;SDS011;8734;59.272;17.780;2023-05-20T05:12:34;6.10;;;1.57;;
17235;SDS011;8734;59.272;17.780;2023-05-20T05:15:03;9.50;;;0.97;;
17235;SDS011;8734;59.272;17.780;2023-05-20T05:17:32;2.30;;;1.00;;
17235;SDS011;8734;59.272;17.780;2023-05-20T05:20:00;4.67;;;1.40;;
17235;SDS011;8734;59.272;17.780;2023-05-20T05:22:30;8.13;;;1.53;;
17235;SDS011;8734;59.272;17.780;2023-05-20T05:25:00;3.23;;;1.33;;
17235;SDS011;8734;59.272;17.780;2023-05-20T05:27:29;5.57;;;1.30;;
17235;SDS011;8734;59.272;17.780;2023-05-20T05:29:57;3.10;;;1.10;;
17235;SDS011;8734;59.272;17.780;2023-05-20T05:32:25;3.70;;;1.20;;
17235;SDS011;8734;59.272;17.780;2023-05-20T05:34:54;7.17;;;1.30;;
17235;SDS011;8734;59.272;17.780;2023-05-20T05:37:22;3.10;;;1.20;;
17235;SDS011;8734;59.272;17.780;2023-05-20T05:39:52;3.00;;;1.10;;
17235;SDS011;8734;59.272;17.780;2023-05-20T05:42:20;3.40;;;1.00;;
17235;SDS011;8734;59.272;17.780;2023-05-20T05:44:48;6.43;;;1.40;;
17235;SDS011;8734;59.272;17.780;2023-05-20T05:47:17;3.23;;;1.20;;
17235;SDS011;8734;59.272;17.780;2023-05-20T05:49:46;2.93;;;1.20;;
17235;SDS011;8734;59.272;17.780;2023-05-20T05:52:14;4.37;;;1.37;;
17235;SDS011;8734;59.272;17.780;2023-05-20T05:54:42;3.70;;;1.10;;
17235;SDS011;8734;59.272;17.780;2023-05-20T05:57:12;2.80;;;1.13;;
17235;SDS011;8734;59.272;17.780;2023-05-20T05:59:40;6.37;;;1.20;;
17235;SDS011;8734;59.272;17.780;2023-05-20T06:02:09;3.53;;;1.30;;
17235;SDS011;8734;59.272;17.780;2023-05-20T06:04:40;4.87;;;1.00;;
17235;SDS011;8734;59.272;17.780;2023-05-20T06:07:08;8.00;;;1.40;;
17235;SDS011;8734;59.272;17.780;2023-05-20T06:09:36;6.73;;;2.17;;
17235;SDS011;8734;59.272;17.780;2023-05-20T06:12:05;10.27;;;1.20;;
17235;SDS011;8734;59.272;17.780;2023-05-20T06:14:35;3.27;;;1.33;;
17235;SDS011;8734;59.272;17.780;2023-05-20T06:17:03;5.53;;;1.23;;
17235;SDS011;8734;59.272;17.780;2023-05-20T06:19:32;3.00;;;1.07;;
17235;SDS011;8734;59.272;17.780;2023-05-20T06:22:01;7.13;;;1.13;;
17235;SDS011;8734;59.272;17.780;2023-05-20T06:24:29;9.13;;;1.20;;
17235;SDS011;8734;59.272;17.780;2023-05-20T06:26:57;3.73;;;1.13;;
17235;SDS011;8734;59.272;17.780;2023-05-20T06:29:25;3.10;;;1.30;;
17235;SDS011;8734;59.272;17.780;2023-05-20T06:31:56;2.77;;;1.17;;
17235;SDS011;8734;59.272;17.780;2023-05-20T06:34:26;3.47;;;1.30;;
17235;SDS011;8734;59.272;17.780;2023-05-20T06:36:54;3.47;;;0.87;;
17235;SDS011;8734;59.272;17.780;2023-05-20T06:39:23;5.83;;;1.17;;
17235;SDS011;8734;59.272;17.780;2023-05-20T06:41:51;3.43;;;1.00;;
17235;SDS011;8734;59.272;17.780;2023-05-20T06:44:19;5.73;;;1.10;;
17235;SDS011;8734;59.272;17.780;2023-05-20T06:46:48;4.40;;;1.23;;
17235;SDS011;8734;59.272;17.780;2023-05-20T06:49:17;1.17;;;0.90;;
17235;SDS011;8734;59.272;17.780;2023-05-20T06:51:46;6.37;;;1.00;;
17235;SDS011;8734;59.272;17.780;2023-05-20T06:54:15;3.80;;;1.37;;
17235;SDS011;8734;59.272;17.780;2023-05-20T06:56:43;4.60;;;1.20;;
17235;SDS011;8734;59.272;17.780;2023-05-20T06:59:12;5.00;;;1.20;;
17235;SDS011;8734;59.272;17.780;2023-05-20T07:01:40;1.97;;;0.90;;
17235;SDS011;8734;59.272;17.780;2023-05-20T07:04:08;3.50;;;0.80;;
17235;SDS011;8734;59.272;17.780;2023-05-20T07:06:38;3.17;;;0.90;;
17235;SDS011;8734;59.272;17.780;2023-05-20T07:09:06;3.67;;;0.90;;
17235;SDS011;8734;59.272;17.780;2023-05-20T07:11:35;2.23;;;0.70;;
17235;SDS011;8734;59.272;17.780;2023-05-20T07:14:03;5.03;;;1.00;;
17235;SDS011;8734;59.272;17.780;2023-05-20T07:16:31;2.13;;;1.10;;
17235;SDS011;8734;59.272;17.780;2023-05-20T07:19:00;2.23;;;0.97;;
17235;SDS011;8734;59.272;17.780;2023-05-20T07:21:29;2.43;;;1.00;;
17235;SDS011;8734;59.272;17.780;2023-05-20T07:23:58;3.87;;;1.10;;
17235;SDS011;8734;59.272;17.780;2023-05-20T07:26:27;1.93;;;1.03;;
17235;SDS011;8734;59.272;17.780;2023-05-20T07:28:58;5.67;;;1.13;;
17235;SDS011;8734;59.272;17.780;2023-05-20T07:31:27;2.57;;;0.90;;
17235;SDS011;8734;59.272;17.780;2023-05-20T07:33:56;3.23;;;1.03;;
17235;SDS011;8734;59.272;17.780;2023-05-20T07:36:25;4.30;;;1.10;;
17235;SDS011;8734;59.272;17.780;2023-05-20T07:38:53;1.30;;;0.70;;
17235;SDS011;8734;59.272;17.780;2023-05-20T07:41:31;2.93;;;0.93;;
17235;SDS011;8734;59.272;17.780;2023-05-20T07:44:00;2.10;;;0.80;;
17235;SDS011;8734;59.272;17.780;2023-05-20T07:46:29;4.83;;;1.00;;
17235;SDS011;8734;59.272;17.780;2023-05-20T07:48:58;2.17;;;1.00;;
17235;SDS011;8734;59.272;17.780;2023-05-20T07:51:26;2.00;;;1.10;;
17235;SDS011;8734;59.272;17.780;2023-05-20T07:53:54;3.20;;;0.90;;
17235;SDS011;8734;59.272;17.780;2023-05-20T07:56:23;2.40;;;0.97;;
17235;SDS011;8734;59.272;17.780;2023-05-20T07:58:53;3.03;;;1.00;;
17235;SDS011;8734;59.272;17.780;2023-05-20T08:01:23;1.27;;;0.83;;
17235;SDS011;8734;59.272;17.780;2023-05-20T08:03:52;4.37;;;0.97;;
17235;SDS011;8734;59.272;17.780;2023-05-20T08:06:21;3.73;;;0.90;;
17235;SDS011;8734;59.272;17.780;2023-05-20T08:08:54;4.07;;;1.00;;
17235;SDS011;8734;59.272;17.780;2023-05-20T08:11:22;6.07;;;0.97;;
17235;SDS011;8734;59.272;17.780;2023-05-20T08:13:50;3.33;;;1.27;;
17235;SDS011;8734;59.272;17.780;2023-05-20T08:16:21;6.03;;;1.70;;
17235;SDS011;8734;59.272;17.780;2023-05-20T08:18:49;5.67;;;1.27;;
17235;SDS011;8734;59.272;17.780;2023-05-20T08:21:17;2.33;;;0.87;;
17235;SDS011;8734;59.272;17.780;2023-05-20T08:23:45;2.13;;;1.10;;
17235;SDS011;8734;59.272;17.780;2023-05-20T08:26:14;1.40;;;0.90;;
17235;SDS011;8734;59.272;17.780;2023-05-20T08:28:42;3.27;;;1.00;;
17235;SDS011;8734;59.272;17.780;2023-05-20T08:31:10;2.73;;;1.10;;
17235;SDS011;8734;59.272;17.780;2023-05-20T08:33:40;9.23;;;1.10;;
17235;SDS011;8734;59.272;17.780;2023-05-20T08:36:08;3.60;;;1.30;;
17235;SDS011;8734;59.272;17.780;2023-05-20T08:38:36;1.97;;;1.00;;
17235;SDS011;8734;59.272;17.780;2023-05-20T08:41:05;5.47;;;1.03;;
17235;SDS011;8734;59.272;17.780;2023-05-20T08:43:33;3.77;;;1.00;;
17235;SDS011;8734;59.272;17.780;2023-05-20T08:46:01;5.17;;;1.00;;
17235;SDS011;8734;59.272;17.780;2023-05-20T08:48:32;2.70;;;0.80;;
17235;SDS011;8734;59.272;17.780;2023-05-20T08:51:03;1.23;;;0.87;;
17235;SDS011;8734;59.272;17.780;2023-05-20T08:53:35;2.20;;;0.97;;
17235;SDS011;8734;59.272;17.780;2023-05-20T08:56:04;4.17;;;0.90;;
17235;SDS011;8734;59.272;17.780;2023-05-20T08:58:33;5.07;;;1.30;;
17235;SDS011;8734;59.272;17.780;2023-05-20T09:01:03;1.90;;;1.00;;
17235;SDS011;8734;59.272;17.780;2023-05-20T09:03:33;1.57;;;0.97;;
17235;SDS011;8734;59.272;17.780;2023-05-20T09:06:04;2.97;;;1.20;;
17235;SDS011;8734;59.272;17.780;2023-05-20T09:08:34;3.90;;;1.00;;
17235;SDS011;8734;59.272;17.780;2023-05-20T09:11:02;2.30;;;0.90;;
17235;SDS011;8734;59.272;17.780;2023-05-20T09:13:31;1.63;;;0.90;;
17235;SDS011;8734;59.272;17.780;2023-05-20T09:15:59;5.17;;;1.13;;
17235;SDS011;8734;59.272;17.780;2023-05-20T09:18:28;2.73;;;0.90;;
17235;SDS011;8734;59.272;17.780;2023-05-20T09:20:57;4.40;;;1.33;;
17235;SDS011;8734;59.272;17.780;2023-05-20T09:23:35;5.63;;;1.00;;
17235;SDS011;8734;59.272;17.780;2023-05-20T09:26:04;2.77;;;1.07;;
17235;SDS011;8734;59.272;17.780;2023-05-20T09:28:33;2.20;;;0.97;;
17235;SDS011;8734;59.272;17.780;2023-05-20T09:31:04;1.27;;;0.70;;
17235;SDS011;8734;59.272;17.780;2023-05-20T09:33:35;3.20;;;1.10;;
17235;SDS011;8734;59.272;17.780;2023-05-20T09:36:04;1.13;;;0.80;;
17235;SDS011;8734;59.272;17.780;2023-05-20T09:38:37;1.80;;;1.00;;
17235;SDS011;8734;59.272;17.780;2023-05-20T09:41:07;1.73;;;0.90;;
17235;SDS011;8734;59.272;17.780;2023-05-20T09:43:38;4.37;;;1.10;;
17235;SDS011;8734;59.272;17.780;2023-05-20T09:46:07;1.00;;;0.80;;
17235;SDS011;8734;59.272;17.780;2023-05-20T09:48:36;1.83;;;0.90;;
17235;SDS011;8734;59.272;17.780;2023-05-20T09:51:05;3.73;;;0.90;;
17235;SDS011;8734;59.272;17.780;2023-05-20T09:53:33;4.37;;;0.90;;
17235;SDS011;8734;59.272;17.780;2023-05-20T09:56:04;2.00;;;1.00;;
17235;SDS011;8734;59.272;17.780;2023-05-20T09:58:33;2.20;;;0.90;;
17235;SDS011;8734;59.272;17.780;2023-05-20T10:01:02;4.20;;;1.23;;
17235;SDS011;8734;59.272;17.780;2023-05-20T10:03:32;4.70;;;1.00;;
17235;SDS011;8734;59.272;17.780;2023-05-20T10:06:06;2.50;;;1.10;;
17235;SDS011;8734;59.272;17.780;2023-05-20T10:08:52;2.40;;;0.77;;
17235;SDS011;8734;59.272;17.780;2023-05-20T10:11:31;3.20;;;1.20;;
17235;SDS011;8734;59.272;17.780;2023-05-20T10:14:12;2.87;;;1.00;;
17235;SDS011;8734;59.272;17.780;2023-05-20T10:16:49;3.20;;;1.40;;
17235;SDS011;8734;59.272;17.780;2023-05-20T10:19:26;1.97;;;1.07;;
17235;SDS011;8734;59.272;17.780;2023-05-20T10:21:57;2.33;;;0.90;;
17235;SDS011;8734;59.272;17.780;2023-05-20T10:24:30;5.03;;;0.90;;
17235;SDS011;8734;59.272;17.780;2023-05-20T10:27:01;3.50;;;1.30;;
17235;SDS011;8734;59.272;17.780;2023-05-20T10:29:40;1.77;;;0.70;;
17235;SDS011;8734;59.272;17.780;2023-05-20T10:32:10;1.27;;;0.97;;
17235;SDS011;8734;59.272;17.780;2023-05-20T10:34:45;1.30;;;0.90;;
17235;SDS011;8734;59.272;17.780;2023-05-20T10:37:24;3.43;;;1.00;;
17235;SDS011;8734;59.272;17.780;2023-05-20T10:40:07;3.03;;;0.90;;
17235;SDS011;8734;59.272;17.780;2023-05-20T10:42:38;3.77;;;1.00;;
17235;SDS011;8734;59.272;17.780;2023-05-20T10:45:07;3.83;;;0.80;;
17235;SDS011;8734;59.272;17.780;2023-05-20T10:47:40;2.07;;;0.80;;
17235;SDS011;8734;59.272;17.780;2023-05-20T10:50:32;1.40;;;0.80;;
17235;SDS011;8734;59.272;17.780;2023-05-20T10:53:02;2.53;;;0.90;;
17235;SDS011;8734;59.272;17.780;2023-05-20T10:55:36;1.20;;;0.67;;
17235;SDS011;8734;59.272;17.780;2023-05-20T10:58:07;4.23;;;0.80;;
17235;SDS011;8734;59.272;17.780;2023-05-20T11:00:37;2.27;;;0.80;;
17235;SDS011;8734;59.272;17.780;2023-05-20T11:03:06;1.77;;;0.80;;
17235;SDS011;8734;59.272;17.780;2023-05-20T11:05:34;0.80;;;0.60;;
17235;SDS011;8734;59.272;17.780;2023-05-20T11:08:06;2.47;;;0.70;;
17235;SDS011;8734;59.272;17.780;2023-05-20T11:10:52;3.90;;;1.00;;
17235;SDS011;8734;59.272;17.780;2023-05-20T11:13:25;1.03;;;0.77;;
17235;SDS011;8734;59.272;17.780;2023-05-20T11:15:53;1.57;;;0.80;;
17235;SDS011;8734;59.272;17.780;2023-05-20T11:18:22;1.20;;;0.80;;
17235;SDS011;8734;59.272;17.780;2023-05-20T11:20:50;3.13;;;1.03;;
17235;SDS011;8734;59.272;17.780;2023-05-20T11:23:19;2.20;;;1.10;;
17235;SDS011;8734;59.272;17.780;2023-05-20T11:25:48;3.50;;;0.80;;
17235;SDS011;8734;59.272;17.780;2023-05-20T11:28:18;4.93;;;0.97;;
17235;SDS011;8734;59.272;17.780;2023-05-20T11:30:50;7.23;;;1.57;;
17235;SDS011;8734;59.272;17.780;2023-05-20T11:33:19;2.03;;;0.93;;
17235;SDS011;8734;59.272;17.780;2023-05-20T11:35:48;2.77;;;0.97;;
17235;SDS011;8734;59.272;17.780;2023-05-20T11:38:18;3.53;;;0.80;;
17235;SDS011;8734;59.272;17.780;2023-05-20T11:40:49;1.13;;;0.83;;
17235;SDS011;8734;59.272;17.780;2023-05-20T11:43:20;2.07;;;1.10;;
17235;SDS011;8734;59.272;17.780;2023-05-20T11:45:53;1.30;;;0.90;;
17235;SDS011;8734;59.272;17.780;2023-05-20T11:48:25;1.90;;;0.80;;
17235;SDS011;8734;59.272;17.780;2023-05-20T11:50:55;1.83;;;1.00;;
17235;SDS011;8734;59.272;17.780;2023-05-20T11:53:26;3.83;;;0.90;;
17235;SDS011;8734;59.272;17.780;2023-05-20T11:55:56;8.80;;;1.00;;
17235;SDS011;8734;59.272;17.780;2023-05-20T11:58:25;6.57;;;1.70;;
17235;SDS011;8734;59.272;17.780;2023-05-20T12:00:57;1.10;;;0.80;;
17235;SDS011;8734;59.272;17.780;2023-05-20T12:03:45;3.43;;;0.90;;
17235;SDS011;8734;59.272;17.780;2023-05-20T12:06:14;6.57;;;1.03;;
17235;SDS011;8734;59.272;17.780;2023-05-20T12:08:43;6.67;;;0.93;;
17235;SDS011;8734;59.272;17.780;2023-05-20T12:11:12;1.33;;;1.00;;
17235;SDS011;8734;59.272;17.780;2023-05-20T12:13:41;7.47;;;1.13;;
17235;SDS011;8734;59.272;17.780;2023-05-20T12:16:10;1.90;;;0.93;;
17235;SDS011;8734;59.272;17.780;2023-05-20T12:18:38;2.57;;;1.17;;
17235;SDS011;8734;59.272;17.780;2023-05-20T12:21:07;2.53;;;0.93;;
17235;SDS011;8734;59.272;17.780;2023-05-20T12:23:36;5.80;;;1.37;;
17235;SDS011;8734;59.272;17.780;2023-05-20T12:26:04;5.60;;;1.20;;
17235;SDS011;8734;59.272;17.780;2023-05-20T12:28:32;3.17;;;1.00;;
17235;SDS011;8734;59.272;17.780;2023-05-20T12:31:00;2.10;;;1.20;;
17235;SDS011;8734;59.272;17.780;2023-05-20T12:33:30;5.97;;;1.30;;
17235;SDS011;8734;59.272;17.780;2023-05-20T12:35:58;5.20;;;1.60;;
17235;SDS011;8734;59.272;17.780;2023-05-20T12:38:26;4.60;;;1.27;;
17235;SDS011;8734;59.272;17.780;2023-05-20T12:40:55;1.30;;;1.00;;
17235;SDS011;8734;59.272;17.780;2023-05-20T12:43:23;1.10;;;0.70;;
17235;SDS011;8734;59.272;17.780;2023-05-20T12:45:52;3.67;;;0.90;;
17235;SDS011;8734;59.272;17.780;2023-05-20T12:48:20;2.27;;;1.00;;
17235;SDS011;8734;59.272;17.780;2023-05-20T12:50:50;4.10;;;0.90;;
17235;SDS011;8734;59.272;17.780;2023-05-20T12:53:18;1.43;;;0.80;;
17235;SDS011;8734;59.272;17.780;2023-05-20T12:55:46;2.73;;;0.97;;
17235;SDS011;8734;59.272;17.780;2023-05-20T12:58:14;1.43;;;0.90;;
17235;SDS011;8734;59.272;17.780;2023-05-20T13:00:43;1.73;;;1.00;;
17235;SDS011;8734;59.272;17.780;2023-05-20T13:03:11;3.23;;;1.00;;
17235;SDS011;8734;59.272;17.780;2023-05-20T13:05:40;2.10;;;1.00;;
17235;SDS011;8734;59.272;17.780;2023-05-20T13:08:10;4.27;;;1.07;;
17235;SDS011;8734;59.272;17.780;2023-05-20T13:10:40;1.60;;;1.00;;
17235;SDS011;8734;59.272;17.780;2023-05-20T13:13:08;9.47;;;1.00;;
17235;SDS011;8734;59.272;17.780;2023-05-20T13:15:36;2.10;;;0.73;;
17235;SDS011;8734;59.272;17.780;2023-05-20T13:18:05;4.87;;;1.70;;
17235;SDS011;8734;59.272;17.780;2023-05-20T13:20:33;3.53;;;1.20;;
17235;SDS011;8734;59.272;17.780;2023-05-20T13:23:03;1.17;;;0.93;;
17235;SDS011;8734;59.272;17.780;2023-05-20T13:25:33;1.13;;;0.80;;
17235;SDS011;8734;59.272;17.780;2023-05-20T13:28:02;2.80;;;0.90;;
17235;SDS011;8734;59.272;17.780;2023-05-20T13:30:31;2.97;;;0.87;;
17235;SDS011;8734;59.272;17.780;2023-05-20T13:33:00;4.50;;;0.97;;
17235;SDS011;8734;59.272;17.780;2023-05-20T13:35:28;4.50;;;1.10;;
17235;SDS011;8734;59.272;17.780;2023-05-20T13:37:56;3.07;;;0.90;;
17235;SDS011;8734;59.272;17.780;2023-05-20T13:40:25;8.27;;;1.50;;
17235;SDS011;8734;59.272;17.780;2023-05-20T13:42:54;4.17;;;2.47;;
17235;SDS011;8734;59.272;17.780;2023-05-20T13:45:23;3.23;;;0.90;;
17235;SDS011;8734;59.272;17.780;2023-05-20T13:47:51;5.47;;;1.00;;
17235;SDS011;8734;59.272;17.780;2023-05-20T13:50:20;8.90;;;1.00;;
17235;SDS011;8734;59.272;17.780;2023-05-20T13:52:48;7.17;;;1.30;;
17235;SDS011;8734;59.272;17.780;2023-05-20T13:55:16;10.90;;;1.07;;
17235;SDS011;8734;59.272;17.780;2023-05-20T13:57:45;7.30;;;1.07;;
17235;SDS011;8734;59.272;17.780;2023-05-20T14:00:15;2.27;;;0.70;;
17235;SDS011;8734;59.272;17.780;2023-05-20T14:02:43;1.80;;;0.77;;
17235;SDS011;8734;59.272;17.780;2023-05-20T14:05:12;2.40;;;1.00;;
17235;SDS011;8734;59.272;17.780;2023-05-20T14:07:40;1.43;;;0.90;;
17235;SDS011;8734;59.272;17.780;2023-05-20T14:10:09;7.17;;;1.20;;
17235;SDS011;8734;59.272;17.780;2023-05-20T14:12:37;1.97;;;0.87;;
17235;SDS011;8734;59.272;17.780;2023-05-20T14:15:06;1.77;;;1.00;;
17235;SDS011;8734;59.272;17.780;2023-05-20T14:17:36;4.33;;;1.00;;
17235;SDS011;8734;59.272;17.780;2023-05-20T14:20:05;1.87;;;0.93;;
17235;SDS011;8734;59.272;17.780;2023-05-20T14:22:35;5.70;;;1.00;;
17235;SDS011;8734;59.272;17.780;2023-05-20T14:25:04;2.57;;;1.00;;
17235;SDS011;8734;59.272;17.780;2023-05-20T14:27:33;4.53;;;1.60;;
17235;SDS011;8734;59.272;17.780;2023-05-20T14:30:02;1.83;;;1.00;;
17235;SDS011;8734;59.272;17.780;2023-05-20T14:32:31;3.77;;;1.10;;
17235;SDS011;8734;59.272;17.780;2023-05-20T14:35:00;4.50;;;0.80;;
17235;SDS011;8734;59.272;17.780;2023-05-20T14:37:29;2.13;;;1.10;;
17235;SDS011;8734;59.272;17.780;2023-05-20T14:39:57;3.87;;;0.93;;
17235;SDS011;8734;59.272;17.780;2023-05-20T14:42:25;4.63;;;1.13;;
17235;SDS011;8734;59.272;17.780;2023-05-20T14:44:53;11.67;;;1.00;;
17235;SDS011;8734;59.272;17.780;2023-05-20T14:47:22;4.53;;;1.20;;
17235;SDS011;8734;59.272;17.780;2023-05-20T14:49:51;5.17;;;1.10;;
17235;SDS011;8734;59.272;17.780;2023-05-20T14:52:21;2.17;;;1.07;;
17235;SDS011;8734;59.272;17.780;2023-05-20T14:54:49;2.87;;;1.10;;
17235;SDS011;8734;59.272;17.780;2023-05-20T14:57:17;6.17;;;1.10;;
17235;SDS011;8734;59.272;17.780;2023-05-20T14:59:46;10.63;;;1.10;;